sensor_id;sensor_type;location;lat;lon;timestamp;temperature;humidity
46231;DHT22;31949;51.404;-0.038;2023-04-24T00:01:42;9.40;99.90
46231;DHT22;31949;51.404;-0.038;2023-04-24T00:04:09;9.40;99.90
46231;DHT22;31949;51.404;-0.038;2023-04-24T00:06:38;9.30;99.90
46231;DHT22;31949;51.404;-0.038;2023-04-24T00:09:10;9.30;99.90
46231;DHT22;31949;51.404;-0.038;2023-04-24T00:11:37;9.30;99.90
46231;DHT22;31949;51.404;-0.038;2023-04-24T00:14:04;9.40;99.90
46231;DHT22;31949;51.404;-0.038;2023-04-24T00:16:32;9.30;99.90
46231;DHT22;31949;51.404;-0.038;2023-04-24T00:18:59;9.30;99.90
46231;DHT22;31949;51.404;-0.038;2023-04-24T00:21:27;9.30;99.90
46231;DHT22;31949;51.404;-0.038;2023-04-24T00:23:54;9.30;99.90
46231;DHT22;31949;51.404;-0.038;2023-04-24T00:26:22;9.20;99.90
46231;DHT22;31949;51.404;-0.038;2023-04-24T00:28:50;9.20;99.90
46231;DHT22;31949;51.404;-0.038;2023-04-24T00:31:21;9.20;99.90
46231;DHT22;31949;51.404;-0.038;2023-04-24T00:33:48;9.20;99.90
46231;DHT22;31949;51.404;-0.038;2023-04-24T00:36:16;9.20;99.90
46231;DHT22;31949;51.404;-0.038;2023-04-24T00:38:43;9.30;99.90
46231;DHT22;31949;51.404;-0.038;2023-04-24T00:41:11;9.30;99.90
46231;DHT22;31949;51.404;-0.038;2023-04-24T00:43:39;9.30;99.90
46231;DHT22;31949;51.404;-0.038;2023-04-24T00:46:07;9.30;99.90
46231;DHT22;31949;51.404;-0.038;2023-04-24T00:48:34;9.30;99.90
46231;DHT22;31949;51.404;-0.038;2023-04-24T00:51:01;9.30;99.90
46231;DHT22;31949;51.404;-0.038;2023-04-24T00:53:29;9.20;99.90
46231;DHT22;31949;51.404;-0.038;2023-04-24T00:55:57;9.30;99.90
46231;DHT22;31949;51.404;-0.038;2023-04-24T00:58:25;9.30;99.90
46231;DHT22;31949;51.404;-0.038;2023-04-24T01:00:53;9.30;99.90
46231;DHT22;31949;51.404;-0.038;2023-04-24T01:03:29;9.30;99.90
46231;DHT22;31949;51.404;-0.038;2023-04-24T01:05:59;9.20;99.90
46231;DHT22;31949;51.404;-0.038;2023-04-24T01:08:26;9.20;99.90
46231;DHT22;31949;51.404;-0.038;2023-04-24T01:10:57;9.20;99.90
46231;DHT22;31949;51.404;-0.038;2023-04-24T01:13:24;9.20;99.90
46231;DHT22;31949;51.404;-0.038;2023-04-24T01:15:52;9.20;99.90
46231;DHT22;31949;51.404;-0.038;2023-04-24T01:18:19;9.20;99.90
46231;DHT22;31949;51.404;-0.038;2023-04-24T01:20:51;9.20;99.90
46231;DHT22;31949;51.404;-0.038;2023-04-24T01:23:20;9.20;99.90
46231;DHT22;31949;51.404;-0.038;2023-04-24T01:25:48;9.20;99.90
46231;DHT22;31949;51.404;-0.038;2023-04-24T01:28:16;9.30;99.90
46231;DHT22;31949;51.404;-0.038;2023-04-24T01:30:44;9.20;99.90
46231;DHT22;31949;51.404;-0.038;2023-04-24T01:33:11;9.30;99.90
46231;DHT22;31949;51.404;-0.038;2023-04-24T01:35:38;9.20;99.90
46231;DHT22;31949;51.404;-0.038;2023-04-24T01:38:06;9.20;99.90
46231;DHT22;31949;51.404;-0.038;2023-04-24T01:40:33;9.20;99.90
46231;DHT22;31949;51.404;-0.038;2023-04-24T01:43:02;9.20;99.90
46231;DHT22;31949;51.404;-0.038;2023-04-24T01:45:29;9.20;99.90
46231;DHT22;31949;51.404;-0.038;2023-04-24T01:47:57;9.20;99.90
46231;DHT22;31949;51.404;-0.038;2023-04-24T01:50:24;9.20;99.90
46231;DHT22;31949;51.404;-0.038;2023-04-24T01:52:51;9.20;99.90
46231;DHT22;31949;51.404;-0.038;2023-04-24T01:55:19;9.10;99.90
46231;DHT22;31949;51.404;-0.038;2023-04-24T01:57:46;9.10;99.90
46231;DHT22;31949;51.404;-0.038;2023-04-24T02:00:14;9.10;99.90
46231;DHT22;31949;51.404;-0.038;2023-04-24T02:02:41;9.10;99.90
46231;DHT22;31949;51.404;-0.038;2023-04-24T02:05:13;9.00;99.90
46231;DHT22;31949;51.404;-0.038;2023-04-24T02:07:40;9.10;99.90
46231;DHT22;31949;51.404;-0.038;2023-04-24T02:10:09;9.00;99.90
46231;DHT22;31949;51.404;-0.038;2023-04-24T02:12:41;9.00;99.90
46231;DHT22;31949;51.404;-0.038;2023-04-24T02:15:09;9.00;99.90
46231;DHT22;31949;51.404;-0.038;2023-04-24T02:17:37;9.00;99.90
46231;DHT22;31949;51.404;-0.038;2023-04-24T02:20:07;9.00;99.90
46231;DHT22;31949;51.404;-0.038;2023-04-24T02:22:34;9.00;99.90
46231;DHT22;31949;51.404;-0.038;2023-04-24T02:25:02;9.00;99.90
46231;DHT22;31949;51.404;-0.038;2023-04-24T02:27:31;8.90;99.90
46231;DHT22;31949;51.404;-0.038;2023-04-24T02:29:58;8.90;99.90
46231;DHT22;31949;51.404;-0.038;2023-04-24T02:32:26;8.90;99.90
46231;DHT22;31949;51.404;-0.038;2023-04-24T02:34:53;8.90;99.90
46231;DHT22;31949;51.404;-0.038;2023-04-24T02:37:20;8.90;99.90
46231;DHT22;31949;51.404;-0.038;2023-04-24T02:39:47;8.80;99.90
46231;DHT22;31949;51.404;-0.038;2023-04-24T02:42:14;8.80;99.90
46231;DHT22;31949;51.404;-0.038;2023-04-24T02:44:42;8.80;99.90
46231;DHT22;31949;51.404;-0.038;2023-04-24T02:47:09;8.80;99.90
46231;DHT22;31949;51.404;-0.038;2023-04-24T02:49:36;8.80;99.90
46231;DHT22;31949;51.404;-0.038;2023-04-24T02:52:04;8.80;99.90
46231;DHT22;31949;51.404;-0.038;2023-04-24T02:54:31;8.80;99.90
46231;DHT22;31949;51.404;-0.038;2023-04-24T02:56:58;8.80;99.90
46231;DHT22;31949;51.404;-0.038;2023-04-24T02:59:26;8.80;99.90
46231;DHT22;31949;51.404;-0.038;2023-04-24T03:01:54;8.70;99.90
46231;DHT22;31949;51.404;-0.038;2023-04-24T03:04:21;8.70;99.90
46231;DHT22;31949;51.404;-0.038;2023-04-24T03:06:49;8.70;99.90
46231;DHT22;31949;51.404;-0.038;2023-04-24T03:09:20;8.70;99.90
46231;DHT22;31949;51.404;-0.038;2023-04-24T03:11:47;8.70;99.90
46231;DHT22;31949;51.404;-0.038;2023-04-24T03:14:16;8.70;99.90
46231;DHT22;31949;51.404;-0.038;2023-04-24T03:16:43;8.70;99.90
46231;DHT22;31949;51.404;-0.038;2023-04-24T03:19:11;8.80;99.90
46231;DHT22;31949;51.404;-0.038;2023-04-24T03:21:50;8.70;99.90
46231;DHT22;31949;51.404;-0.038;2023-04-24T03:24:17;8.70;99.90
46231;DHT22;31949;51.404;-0.038;2023-04-24T03:26:45;8.70;99.90
46231;DHT22;31949;51.404;-0.038;2023-04-24T03:29:26;8.80;99.90
46231;DHT22;31949;51.404;-0.038;2023-04-24T03:31:56;8.80;99.90
46231;DHT22;31949;51.404;-0.038;2023-04-24T03:34:24;8.80;99.90
46231;DHT22;31949;51.404;-0.038;2023-04-24T03:36:52;8.70;99.90
46231;DHT22;31949;51.404;-0.038;2023-04-24T03:39:20;8.70;99.90
46231;DHT22;31949;51.404;-0.038;2023-04-24T03:41:53;8.70;99.90
46231;DHT22;31949;51.404;-0.038;2023-04-24T03:44:25;8.70;99.90
46231;DHT22;31949;51.404;-0.038;2023-04-24T03:46:52;8.60;99.90
46231;DHT22;31949;51.404;-0.038;2023-04-24T03:49:22;8.70;99.90
46231;DHT22;31949;51.404;-0.038;2023-04-24T03:51:49;8.70;99.90
46231;DHT22;31949;51.404;-0.038;2023-04-24T03:54:21;8.70;99.90
46231;DHT22;31949;51.404;-0.038;2023-04-24T03:56:50;8.80;99.90
46231;DHT22;31949;51.404;-0.038;2023-04-24T03:59:18;8.70;99.90
46231;DHT22;31949;51.404;-0.038;2023-04-24T04:01:50;8.80;99.90
46231;DHT22;31949;51.404;-0.038;2023-04-24T04:04:17;8.70;99.90
46231;DHT22;31949;51.404;-0.038;2023-04-24T04:06:45;8.70;99.90
46231;DHT22;31949;51.404;-0.038;2023-04-24T04:09:13;8.70;99.90
46231;DHT22;31949;51.404;-0.038;2023-04-24T04:11:41;8.70;99.90
46231;DHT22;31949;51.404;-0.038;2023-04-24T04:14:08;8.70;99.90
46231;DHT22;31949;51.404;-0.038;2023-04-24T04:16:39;8.60;99.90
46231;DHT22;31949;51.404;-0.038;2023-04-24T04:19:07;8.70;99.90
46231;DHT22;31949;51.404;-0.038;2023-04-24T04:21:35;8.70;99.90
46231;DHT22;31949;51.404;-0.038;2023-04-24T04:24:20;8.60;99.90
46231;DHT22;31949;51.404;-0.038;2023-04-24T04:26:51;8.60;99.90
46231;DHT22;31949;51.404;-0.038;2023-04-24T04:29:26;8.60;99.90
46231;DHT22;31949;51.404;-0.038;2023-04-24T04:31:53;8.60;99.90
46231;DHT22;31949;51.404;-0.038;2023-04-24T04:34:22;8.60;99.90
46231;DHT22;31949;51.404;-0.038;2023-04-24T04:36:51;8.60;99.90
46231;DHT22;31949;51.404;-0.038;2023-04-24T04:39:31;8.60;99.90
46231;DHT22;31949;51.404;-0.038;2023-04-24T04:42:01;8.60;99.90
46231;DHT22;31949;51.404;-0.038;2023-04-24T04:44:37;8.60;99.90
46231;DHT22;31949;51.404;-0.038;2023-04-24T04:47:06;8.60;99.90
46231;DHT22;31949;51.404;-0.038;2023-04-24T04:49:37;8.70;99.90
46231;DHT22;31949;51.404;-0.038;2023-04-24T04:52:10;8.70;99.90
46231;DHT22;31949;51.404;-0.038;2023-04-24T04:54:37;8.70;99.90
46231;DHT22;31949;51.404;-0.038;2023-04-24T04:57:05;8.70;99.90
46231;DHT22;31949;51.404;-0.038;2023-04-24T04:59:32;8.80;99.90
46231;DHT22;31949;51.404;-0.038;2023-04-24T05:02:05;8.70;99.90
46231;DHT22;31949;51.404;-0.038;2023-04-24T05:04:33;8.70;99.90
46231;DHT22;31949;51.404;-0.038;2023-04-24T05:07:00;8.70;99.90
46231;DHT22;31949;51.404;-0.038;2023-04-24T05:09:30;8.70;99.90
46231;DHT22;31949;51.404;-0.038;2023-04-24T05:12:02;8.70;99.90
46231;DHT22;31949;51.404;-0.038;2023-04-24T05:14:34;8.70;99.90
46231;DHT22;31949;51.404;-0.038;2023-04-24T05:17:01;8.80;99.90
46231;DHT22;31949;51.404;-0.038;2023-04-24T05:19:30;8.70;99.90
46231;DHT22;31949;51.404;-0.038;2023-04-24T05:22:03;8.70;99.90
46231;DHT22;31949;51.404;-0.038;2023-04-24T05:24:33;8.60;99.90
46231;DHT22;31949;51.404;-0.038;2023-04-24T05:27:10;8.60;99.90
46231;DHT22;31949;51.404;-0.038;2023-04-24T05:29:39;8.70;99.90
46231;DHT22;31949;51.404;-0.038;2023-04-24T05:32:08;8.70;99.90
46231;DHT22;31949;51.404;-0.038;2023-04-24T05:34:35;8.70;99.90
46231;DHT22;31949;51.404;-0.038;2023-04-24T05:37:03;8.70;99.90
46231;DHT22;31949;51.404;-0.038;2023-04-24T05:39:35;8.70;99.90
46231;DHT22;31949;51.404;-0.038;2023-04-24T05:42:03;8.80;99.90
46231;DHT22;31949;51.404;-0.038;2023-04-24T05:44:31;8.80;99.90
46231;DHT22;31949;51.404;-0.038;2023-04-24T05:46:59;8.80;99.90
46231;DHT22;31949;51.404;-0.038;2023-04-24T05:49:26;8.70;99.90
46231;DHT22;31949;51.404;-0.038;2023-04-24T05:51:54;8.80;99.90
46231;DHT22;31949;51.404;-0.038;2023-04-24T05:54:22;8.80;99.90
46231;DHT22;31949;51.404;-0.038;2023-04-24T05:56:49;8.80;99.90
46231;DHT22;31949;51.404;-0.038;2023-04-24T05:59:27;8.90;99.90
46231;DHT22;31949;51.404;-0.038;2023-04-24T06:01:54;8.90;99.90
46231;DHT22;31949;51.404;-0.038;2023-04-24T06:04:23;8.90;99.90
46231;DHT22;31949;51.404;-0.038;2023-04-24T06:06:51;8.90;99.90
46231;DHT22;31949;51.404;-0.038;2023-04-24T06:09:22;9.00;99.90
46231;DHT22;31949;51.404;-0.038;2023-04-24T06:11:50;9.00;99.90
46231;DHT22;31949;51.404;-0.038;2023-04-24T06:14:24;9.00;99.90
46231;DHT22;31949;51.404;-0.038;2023-04-24T06:17:30;9.00;99.90
46231;DHT22;31949;51.404;-0.038;2023-04-24T06:19:58;9.00;99.90
46231;DHT22;31949;51.404;-0.038;2023-04-24T06:22:25;9.00;99.90
46231;DHT22;31949;51.404;-0.038;2023-04-24T06:24:52;9.10;99.90
46231;DHT22;31949;51.404;-0.038;2023-04-24T06:27:20;9.10;99.90
46231;DHT22;31949;51.404;-0.038;2023-04-24T06:29:47;9.10;99.90
46231;DHT22;31949;51.404;-0.038;2023-04-24T06:32:22;9.20;99.90
46231;DHT22;31949;51.404;-0.038;2023-04-24T06:34:53;9.20;99.90
46231;DHT22;31949;51.404;-0.038;2023-04-24T06:37:21;9.20;99.90
46231;DHT22;31949;51.404;-0.038;2023-04-24T06:39:48;9.30;99.90
46231;DHT22;31949;51.404;-0.038;2023-04-24T06:42:17;9.30;99.90
46231;DHT22;31949;51.404;-0.038;2023-04-24T06:44:44;9.30;99.90
46231;DHT22;31949;51.404;-0.038;2023-04-24T06:47:12;9.20;99.90
46231;DHT22;31949;51.404;-0.038;2023-04-24T06:49:40;9.30;99.90
46231;DHT22;31949;51.404;-0.038;2023-04-24T06:52:08;9.30;99.90
46231;DHT22;31949;51.404;-0.038;2023-04-24T06:54:35;9.20;99.90
46231;DHT22;31949;51.404;-0.038;2023-04-24T06:57:02;9.20;99.90
46231;DHT22;31949;51.404;-0.038;2023-04-24T06:59:30;9.30;99.90
46231;DHT22;31949;51.404;-0.038;2023-04-24T07:01:57;9.40;99.90
46231;DHT22;31949;51.404;-0.038;2023-04-24T07:04:25;9.50;99.90
46231;DHT22;31949;51.404;-0.038;2023-04-24T07:06:53;9.60;99.90
46231;DHT22;31949;51.404;-0.038;2023-04-24T07:09:23;9.80;99.90
46231;DHT22;31949;51.404;-0.038;2023-04-24T07:11:51;10.00;99.90
46231;DHT22;31949;51.404;-0.038;2023-04-24T07:14:19;10.20;99.90
46231;DHT22;31949;51.404;-0.038;2023-04-24T07:16:46;10.40;99.90
46231;DHT22;31949;51.404;-0.038;2023-04-24T07:19:13;10.50;99.90
46231;DHT22;31949;51.404;-0.038;2023-04-24T07:21:40;10.70;99.90
46231;DHT22;31949;51.404;-0.038;2023-04-24T07:24:08;10.70;99.90
46231;DHT22;31949;51.404;-0.038;2023-04-24T07:26:39;10.60;99.90
46231;DHT22;31949;51.404;-0.038;2023-04-24T07:29:07;10.70;99.90
46231;DHT22;31949;51.404;-0.038;2023-04-24T07:31:34;10.80;99.90
46231;DHT22;31949;51.404;-0.038;2023-04-24T07:34:02;10.90;99.90
46231;DHT22;31949;51.404;-0.038;2023-04-24T07:36:29;11.00;99.90
46231;DHT22;31949;51.404;-0.038;2023-04-24T07:38:56;11.10;99.90
46231;DHT22;31949;51.404;-0.038;2023-04-24T07:41:24;11.20;99.90
46231;DHT22;31949;51.404;-0.038;2023-04-24T07:43:51;11.20;99.90
46231;DHT22;31949;51.404;-0.038;2023-04-24T07:46:20;11.20;99.90
46231;DHT22;31949;51.404;-0.038;2023-04-24T07:48:48;11.30;99.90
46231;DHT22;31949;51.404;-0.038;2023-04-24T07:51:27;11.40;99.90
46231;DHT22;31949;51.404;-0.038;2023-04-24T07:53:55;11.30;99.90
46231;DHT22;31949;51.404;-0.038;2023-04-24T07:56:22;11.40;99.90
46231;DHT22;31949;51.404;-0.038;2023-04-24T07:58:50;11.40;99.90
46231;DHT22;31949;51.404;-0.038;2023-04-24T08:01:17;11.40;99.90
46231;DHT22;31949;51.404;-0.038;2023-04-24T08:03:44;11.40;99.90
46231;DHT22;31949;51.404;-0.038;2023-04-24T08:06:12;11.50;99.90
46231;DHT22;31949;51.404;-0.038;2023-04-24T08:08:39;11.60;99.90
46231;DHT22;31949;51.404;-0.038;2023-04-24T08:11:06;11.70;99.90
46231;DHT22;31949;51.404;-0.038;2023-04-24T08:13:33;11.70;99.90
46231;DHT22;31949;51.404;-0.038;2023-04-24T08:16:01;11.70;99.90
46231;DHT22;31949;51.404;-0.038;2023-04-24T08:18:28;11.70;99.90
46231;DHT22;31949;51.404;-0.038;2023-04-24T08:20:55;11.70;99.90
46231;DHT22;31949;51.404;-0.038;2023-04-24T08:23:28;11.60;99.90
46231;DHT22;31949;51.404;-0.038;2023-04-24T08:25:56;11.60;99.90
46231;DHT22;31949;51.404;-0.038;2023-04-24T08:28:25;11.70;99.90
46231;DHT22;31949;51.404;-0.038;2023-04-24T08:30:52;11.70;99.90
46231;DHT22;31949;51.404;-0.038;2023-04-24T08:33:22;11.70;99.90
46231;DHT22;31949;51.404;-0.038;2023-04-24T08:35:50;11.80;99.90
46231;DHT22;31949;51.404;-0.038;2023-04-24T08:38:17;11.80;99.90
46231;DHT22;31949;51.404;-0.038;2023-04-24T08:40:44;11.80;99.90
46231;DHT22;31949;51.404;-0.038;2023-04-24T08:43:16;11.80;99.90
46231;DHT22;31949;51.404;-0.038;2023-04-24T08:45:43;11.80;99.90
46231;DHT22;31949;51.404;-0.038;2023-04-24T08:48:11;11.90;99.90
46231;DHT22;31949;51.404;-0.038;2023-04-24T08:50:51;11.90;99.90
46231;DHT22;31949;51.404;-0.038;2023-04-24T08:53:18;11.80;99.90
46231;DHT22;31949;51.404;-0.038;2023-04-24T08:55:47;11.80;99.90
46231;DHT22;31949;51.404;-0.038;2023-04-24T08:58:16;12.00;99.90
46231;DHT22;31949;51.404;-0.038;2023-04-24T09:00:45;12.10;99.90
46231;DHT22;31949;51.404;-0.038;2023-04-24T09:03:15;12.20;99.90
46231;DHT22;31949;51.404;-0.038;2023-04-24T09:05:47;12.20;99.90
46231;DHT22;31949;51.404;-0.038;2023-04-24T09:08:16;12.20;99.90
46231;DHT22;31949;51.404;-0.038;2023-04-24T09:10:44;12.10;99.90
46231;DHT22;31949;51.404;-0.038;2023-04-24T09:13:11;12.10;99.90
46231;DHT22;31949;51.404;-0.038;2023-04-24T09:15:40;12.10;99.90
46231;DHT22;31949;51.404;-0.038;2023-04-24T09:18:08;12.20;99.90
46231;DHT22;31949;51.404;-0.038;2023-04-24T09:21:07;12.20;99.90
46231;DHT22;31949;51.404;-0.038;2023-04-24T09:23:34;12.20;99.90
46231;DHT22;31949;51.404;-0.038;2023-04-24T09:26:03;12.20;99.90
46231;DHT22;31949;51.404;-0.038;2023-04-24T09:28:37;12.30;99.90
46231;DHT22;31949;51.404;-0.038;2023-04-24T09:31:16;12.50;99.90
46231;DHT22;31949;51.404;-0.038;2023-04-24T09:34:00;12.60;99.90
46231;DHT22;31949;51.404;-0.038;2023-04-24T09:36:31;12.70;99.90
46231;DHT22;31949;51.404;-0.038;2023-04-24T09:39:01;12.80;99.90
46231;DHT22;31949;51.404;-0.038;2023-04-24T09:41:28;12.90;99.90
46231;DHT22;31949;51.404;-0.038;2023-04-24T09:43:56;13.10;99.90
46231;DHT22;31949;51.404;-0.038;2023-04-24T09:46:31;13.00;99.90
46231;DHT22;31949;51.404;-0.038;2023-04-24T09:49:08;13.00;99.90
46231;DHT22;31949;51.404;-0.038;2023-04-24T09:51:37;13.10;99.90
46231;DHT22;31949;51.404;-0.038;2023-04-24T09:54:14;13.30;99.90
46231;DHT22;31949;51.404;-0.038;2023-04-24T09:56:44;13.40;99.90
46231;DHT22;31949;51.404;-0.038;2023-04-24T09:59:22;13.40;99.90
46231;DHT22;31949;51.404;-0.038;2023-04-24T10:01:49;13.50;99.90
46231;DHT22;31949;51.404;-0.038;2023-04-24T10:04:23;13.50;99.90
46231;DHT22;31949;51.404;-0.038;2023-04-24T10:06:53;13.50;99.90
46231;DHT22;31949;51.404;-0.038;2023-04-24T10:09:25;13.50;99.90
46231;DHT22;31949;51.404;-0.038;2023-04-24T10:11:54;13.60;99.90
46231;DHT22;31949;51.404;-0.038;2023-04-24T10:14:23;13.50;99.90
46231;DHT22;31949;51.404;-0.038;2023-04-24T10:16:53;13.50;99.90
46231;DHT22;31949;51.404;-0.038;2023-04-24T10:19:21;13.50;99.90
46231;DHT22;31949;51.404;-0.038;2023-04-24T10:21:49;13.40;99.90
46231;DHT22;31949;51.404;-0.038;2023-04-24T10:24:18;13.40;99.90
46231;DHT22;31949;51.404;-0.038;2023-04-24T10:26:48;13.50;99.90
46231;DHT22;31949;51.404;-0.038;2023-04-24T10:29:17;13.60;99.90
46231;DHT22;31949;51.404;-0.038;2023-04-24T10:31:45;13.70;99.90
46231;DHT22;31949;51.404;-0.038;2023-04-24T10:34:15;13.60;99.90
46231;DHT22;31949;51.404;-0.038;2023-04-24T10:36:49;13.60;99.90
46231;DHT22;31949;51.404;-0.038;2023-04-24T10:39:18;13.60;99.90
46231;DHT22;31949;51.404;-0.038;2023-04-24T10:41:54;13.50;99.90
46231;DHT22;31949;51.404;-0.038;2023-04-24T10:44:24;13.50;99.90
46231;DHT22;31949;51.404;-0.038;2023-04-24T10:46:55;13.50;99.90
46231;DHT22;31949;51.404;-0.038;2023-04-24T10:49:30;13.50;99.90
46231;DHT22;31949;51.404;-0.038;2023-04-24T10:52:03;13.60;99.90
46231;DHT22;31949;51.404;-0.038;2023-04-24T10:54:36;13.50;99.90
46231;DHT22;31949;51.404;-0.038;2023-04-24T11:02:37;13.40;99.90
46231;DHT22;31949;51.404;-0.038;2023-04-24T11:05:06;13.30;99.90
46231;DHT22;31949;51.404;-0.038;2023-04-24T11:10:43;13.40;99.90
46231;DHT22;31949;51.404;-0.038;2023-04-24T11:13:13;13.30;99.90
46231;DHT22;31949;51.404;-0.038;2023-04-24T11:15:41;13.30;99.90
46231;DHT22;31949;51.404;-0.038;2023-04-24T11:18:14;13.30;99.90
46231;DHT22;31949;51.404;-0.038;2023-04-24T11:20:43;13.40;99.90
46231;DHT22;31949;51.404;-0.038;2023-04-24T11:23:12;13.50;99.90
46231;DHT22;31949;51.404;-0.038;2023-04-24T11:25:41;13.40;99.90
46231;DHT22;31949;51.404;-0.038;2023-04-24T11:28:14;13.50;99.90
46231;DHT22;31949;51.404;-0.038;2023-04-24T11:30:43;13.60;99.90
46231;DHT22;31949;51.404;-0.038;2023-04-24T11:33:10;13.60;99.90
46231;DHT22;31949;51.404;-0.038;2023-04-24T11:35:41;13.60;99.90
46231;DHT22;31949;51.404;-0.038;2023-04-24T11:38:10;13.60;99.90
46231;DHT22;31949;51.404;-0.038;2023-04-24T11:40:51;13.60;99.90
46231;DHT22;31949;51.404;-0.038;2023-04-24T11:43:19;13.60;99.90
46231;DHT22;31949;51.404;-0.038;2023-04-24T11:45:50;13.50;99.90
46231;DHT22;31949;51.404;-0.038;2023-04-24T11:48:20;13.40;99.90
46231;DHT22;31949;51.404;-0.038;2023-04-24T11:50:50;13.50;99.90
46231;DHT22;31949;51.404;-0.038;2023-04-24T11:53:20;13.50;99.90
46231;DHT22;31949;51.404;-0.038;2023-04-24T11:55:48;13.50;99.90
46231;DHT22;31949;51.404;-0.038;2023-04-24T11:58:20;13.70;99.90
46231;DHT22;31949;51.404;-0.038;2023-04-24T12:00:56;13.90;99.90
46231;DHT22;31949;51.404;-0.038;2023-04-24T12:03:24;13.90;99.90
46231;DHT22;31949;51.404;-0.038;2023-04-24T12:05:52;14.00;99.90
46231;DHT22;31949;51.404;-0.038;2023-04-24T12:08:29;14.00;99.90
46231;DHT22;31949;51.404;-0.038;2023-04-24T12:10:56;14.10;99.90
46231;DHT22;31949;51.404;-0.038;2023-04-24T12:13:25;14.30;99.90
46231;DHT22;31949;51.404;-0.038;2023-04-24T12:15:52;14.40;99.90
46231;DHT22;31949;51.404;-0.038;2023-04-24T12:18:23;14.50;99.90
46231;DHT22;31949;51.404;-0.038;2023-04-24T12:20:51;14.40;99.90
46231;DHT22;31949;51.404;-0.038;2023-04-24T12:23:34;14.40;99.90
46231;DHT22;31949;51.404;-0.038;2023-04-24T12:26:04;14.40;99.90
46231;DHT22;31949;51.404;-0.038;2023-04-24T12:28:37;14.20;99.90
46231;DHT22;31949;51.404;-0.038;2023-04-24T12:31:06;14.30;99.90
46231;DHT22;31949;51.404;-0.038;2023-04-24T12:33:34;14.40;99.90
46231;DHT22;31949;51.404;-0.038;2023-04-24T12:36:02;14.50;99.90
46231;DHT22;31949;51.404;-0.038;2023-04-24T12:38:30;14.70;99.90
46231;DHT22;31949;51.404;-0.038;2023-04-24T12:41:11;14.70;99.90
46231;DHT22;31949;51.404;-0.038;2023-04-24T12:43:38;14.80;99.90
46231;DHT22;31949;51.404;-0.038;2023-04-24T12:46:17;14.70;99.90
46231;DHT22;31949;51.404;-0.038;2023-04-24T12:48:47;14.50;99.90
46231;DHT22;31949;51.404;-0.038;2023-04-24T12:51:14;14.30;99.90
46231;DHT22;31949;51.404;-0.038;2023-04-24T12:53:42;14.10;99.90
46231;DHT22;31949;51.404;-0.038;2023-04-24T12:56:09;14.00;99.90
46231;DHT22;31949;51.404;-0.038;2023-04-24T12:58:37;13.90;99.90
46231;DHT22;31949;51.404;-0.038;2023-04-24T13:01:04;13.90;99.90
46231;DHT22;31949;51.404;-0.038;2023-04-24T13:03:32;14.00;99.90
46231;DHT22;31949;51.404;-0.038;2023-04-24T13:05:59;14.10;99.90
46231;DHT22;31949;51.404;-0.038;2023-04-24T13:08:26;14.20;99.90
46231;DHT22;31949;51.404;-0.038;2023-04-24T13:10:54;14.40;99.90
46231;DHT22;31949;51.404;-0.038;2023-04-24T13:13:21;14.30;99.90
46231;DHT22;31949;51.404;-0.038;2023-04-24T13:15:48;14.20;99.90
46231;DHT22;31949;51.404;-0.038;2023-04-24T13:18:15;14.00;99.90
46231;DHT22;31949;51.404;-0.038;2023-04-24T13:20:43;14.00;99.90
46231;DHT22;31949;51.404;-0.038;2023-04-24T13:23:11;13.90;99.90
46231;DHT22;31949;51.404;-0.038;2023-04-24T13:25:38;14.00;99.90
46231;DHT22;31949;51.404;-0.038;2023-04-24T13:28:06;14.10;99.90
46231;DHT22;31949;51.404;-0.038;2023-04-24T13:30:33;14.20;99.90
46231;DHT22;31949;51.404;-0.038;2023-04-24T13:33:01;14.20;99.90
46231;DHT22;31949;51.404;-0.038;2023-04-24T13:35:28;14.10;99.90
46231;DHT22;31949;51.404;-0.038;2023-04-24T13:37:56;14.20;99.90
46231;DHT22;31949;51.404;-0.038;2023-04-24T13:40:23;14.20;99.90
46231;DHT22;31949;51.404;-0.038;2023-04-24T13:42:50;14.40;99.90
46231;DHT22;31949;51.404;-0.038;2023-04-24T13:45:18;14.50;99.90
46231;DHT22;31949;51.404;-0.038;2023-04-24T13:47:51;14.70;99.90
46231;DHT22;31949;51.404;-0.038;2023-04-24T13:50:21;14.80;99.90
46231;DHT22;31949;51.404;-0.038;2023-04-24T13:52:48;14.80;99.90
46231;DHT22;31949;51.404;-0.038;2023-04-24T13:55:16;14.90;99.90
46231;DHT22;31949;51.404;-0.038;2023-04-24T13:57:43;14.80;99.90
46231;DHT22;31949;51.404;-0.038;2023-04-24T14:00:11;14.90;99.90
46231;DHT22;31949;51.404;-0.038;2023-04-24T14:02:38;14.80;99.90
46231;DHT22;31949;51.404;-0.038;2023-04-24T14:05:06;14.70;99.90
46231;DHT22;31949;51.404;-0.038;2023-04-24T14:07:34;14.70;99.90
46231;DHT22;31949;51.404;-0.038;2023-04-24T14:10:01;14.70;99.90
46231;DHT22;31949;51.404;-0.038;2023-04-24T14:12:28;14.80;99.90
46231;DHT22;31949;51.404;-0.038;2023-04-24T14:14:55;14.90;99.90
46231;DHT22;31949;51.404;-0.038;2023-04-24T14:17:23;14.80;99.90
46231;DHT22;31949;51.404;-0.038;2023-04-24T14:19:50;14.90;99.90
46231;DHT22;31949;51.404;-0.038;2023-04-24T14:22:18;14.90;99.90
46231;DHT22;31949;51.404;-0.038;2023-04-24T14:24:46;14.80;99.90
46231;DHT22;31949;51.404;-0.038;2023-04-24T14:27:13;14.80;99.90
46231;DHT22;31949;51.404;-0.038;2023-04-24T14:29:40;15.00;99.90
46231;DHT22;31949;51.404;-0.038;2023-04-24T14:32:08;15.00;99.90
46231;DHT22;31949;51.404;-0.038;2023-04-24T14:34:35;15.10;99.90
46231;DHT22;31949;51.404;-0.038;2023-04-24T14:37:03;15.20;99.90
46231;DHT22;31949;51.404;-0.038;2023-04-24T14:39:33;15.00;99.90
46231;DHT22;31949;51.404;-0.038;2023-04-24T14:42:00;14.90;99.90
46231;DHT22;31949;51.404;-0.038;2023-04-24T14:44:28;14.90;99.90
46231;DHT22;31949;51.404;-0.038;2023-04-24T14:46:55;14.60;99.90
46231;DHT22;31949;51.404;-0.038;2023-04-24T14:49:23;14.60;99.90
46231;DHT22;31949;51.404;-0.038;2023-04-24T14:51:50;14.50;99.90
46231;DHT22;31949;51.404;-0.038;2023-04-24T14:54:18;14.50;99.90
46231;DHT22;31949;51.404;-0.038;2023-04-24T14:56:46;14.50;99.90
46231;DHT22;31949;51.404;-0.038;2023-04-24T14:59:14;14.50;99.90
46231;DHT22;31949;51.404;-0.038;2023-04-24T15:01:41;14.50;99.90
46231;DHT22;31949;51.404;-0.038;2023-04-24T15:04:09;14.50;99.90
46231;DHT22;31949;51.404;-0.038;2023-04-24T15:06:37;14.40;99.90
46231;DHT22;31949;51.404;-0.038;2023-04-24T15:09:04;14.30;99.90
46231;DHT22;31949;51.404;-0.038;2023-04-24T15:11:32;14.20;99.90
46231;DHT22;31949;51.404;-0.038;2023-04-24T15:13:59;14.20;99.90
46231;DHT22;31949;51.404;-0.038;2023-04-24T15:16:26;14.10;99.90
46231;DHT22;31949;51.404;-0.038;2023-04-24T15:18:54;14.00;99.90
46231;DHT22;31949;51.404;-0.038;2023-04-24T15:21:21;13.60;99.90
46231;DHT22;31949;51.404;-0.038;2023-04-24T15:23:48;13.30;99.90
46231;DHT22;31949;51.404;-0.038;2023-04-24T15:26:15;12.60;99.90
46231;DHT22;31949;51.404;-0.038;2023-04-24T15:28:43;12.10;99.90
46231;DHT22;31949;51.404;-0.038;2023-04-24T15:31:10;11.80;99.90
46231;DHT22;31949;51.404;-0.038;2023-04-24T15:33:37;11.30;99.90
46231;DHT22;31949;51.404;-0.038;2023-04-24T15:36:05;11.10;99.90
46231;DHT22;31949;51.404;-0.038;2023-04-24T15:38:32;10.70;99.90
46231;DHT22;31949;51.404;-0.038;2023-04-24T15:40:59;10.70;99.90
46231;DHT22;31949;51.404;-0.038;2023-04-24T15:43:26;10.50;99.90